Purcellville, VA

5:41 PM EDT on April 01, 2015 (GMT -0400)
Lincoln Heights | | Change Station
CLOSE
Current Station
Personal Weather Station
Location: Purcellville, VA
Elevation: 509 ft
Nearby Weather Stations

Elev 509 ft 39.10 °N, 77.70 °W | Updated 7 minutes ago

Clear
Clear
57.7 °F
Feels Like 57.7 °F
N
3.8
Wind Variable Wind from NNE

Today
High -- | Low -- °F
--% Chance of Precip.
Yesterday
High -- | Low -- °F
Precip. -- in
6:55 AM 7:34 PM
Waxing Gibbous, 94% visible
Pressure 30.15 in
Visibility 10.0 miles
Clouds Scattered Clouds 8000 ft
Dew Point 29 °F
Humidity 33%
Rainfall 0.00 in
Snow Depth Not available.
UV 2 out of 12
Pollen 9.40 out of 12
Air Quality Not available.
Flu Activity Not available.
METAR KJYO 012115Z AUTO 36005KT 10SM SCT080 15/00 A3015 RMK AO2

More Conditions Fewer Conditions

Pressure 30.15 in
Visibility 10.0 miles
Clouds Scattered Clouds 8000 ft
Dew Point 29 °F
Humidity 33%
Rainfall 0.00 in
Snow Depth Not available.
UV 2 out of 12
Pollen 9.40 out of 12
Air Quality Not available.
Flu Activity Not available.
METAR KJYO 012115Z AUTO 36005KT 10SM SCT080 15/00 A3015 RMK AO2

More Conditions Fewer Conditions

10-Day Weather Forecast

Almanac

Astronomy

Apr. 01, 2015 Rise Set
Actual Time
Civil Twilight
Nautical Twilight
Astronomical Twilight
Moon
Length of Visible Light
Length of Day
Tomorrow will be .
, % of the Moon is Illuminated

Today's Extremes

State Highs State Lows

Community

WunderPhotos

Upload Photos

1,810,090 photos uploaded!

WunderBlogs® & News

Nearby

Air Quality

  Air Quality AQ Index Pollutant
Not available.

Snow Depth

Station Depth Elevation

Earthquake Activity

City Distance Mag. Time & Date
Minimum magnitude displayed is 2.5.

Coastal Water Temperatures

Place Temperature

Stations

Nearby Weather Stations

Station Location Temp. Windchill Dew Point Humidity Wind Precip. Elev Updated Type